sensor_id;sensor_type;location;lat;lon;timestamp;P1;durP1;ratioP1;P2;durP2;ratioP2
22068;SDS011;13887;57.196;-2.100;2023-12-14T00:01:18;13.63;;;13.13;;
22068;SDS011;13887;57.196;-2.100;2023-12-14T00:03:45;13.30;;;12.90;;
22068;SDS011;13887;57.196;-2.100;2023-12-14T00:06:13;13.30;;;12.90;;
22068;SDS011;13887;57.196;-2.100;2023-12-14T00:08:41;13.73;;;13.23;;
22068;SDS011;13887;57.196;-2.100;2023-12-14T00:11:11;13.80;;;13.30;;
22068;SDS011;13887;57.196;-2.100;2023-12-14T00:13:38;13.23;;;12.83;;
22068;SDS011;13887;57.196;-2.100;2023-12-14T00:16:06;13.33;;;12.93;;
22068;SDS011;13887;57.196;-2.100;2023-12-14T00:18:35;13.90;;;13.40;;
22068;SDS011;13887;57.196;-2.100;2023-12-14T00:21:03;13.73;;;13.23;;
22068;SDS011;13887;57.196;-2.100;2023-12-14T00:23:31;13.70;;;13.20;;
22068;SDS011;13887;57.196;-2.100;2023-12-14T00:25:58;13.00;;;12.60;;
22068;SDS011;13887;57.196;-2.100;2023-12-14T00:28:25;12.87;;;12.47;;
22068;SDS011;13887;57.196;-2.100;2023-12-14T00:30:57;12.90;;;12.50;;
22068;SDS011;13887;57.196;-2.100;2023-12-14T00:33:24;13.40;;;13.00;;
22068;SDS011;13887;57.196;-2.100;2023-12-14T00:35:52;13.20;;;12.80;;
22068;SDS011;13887;57.196;-2.100;2023-12-14T00:38:19;13.57;;;13.07;;
22068;SDS011;13887;57.196;-2.100;2023-12-14T00:40:46;13.53;;;13.10;;
22068;SDS011;13887;57.196;-2.100;2023-12-14T00:43:14;13.53;;;13.07;;
22068;SDS011;13887;57.196;-2.100;2023-12-14T00:45:41;13.80;;;13.30;;
22068;SDS011;13887;57.196;-2.100;2023-12-14T00:48:08;13.37;;;12.97;;
22068;SDS011;13887;57.196;-2.100;2023-12-14T00:50:36;13.00;;;12.60;;
22068;SDS011;13887;57.196;-2.100;2023-12-14T00:53:03;13.23;;;12.83;;
22068;SDS011;13887;57.196;-2.100;2023-12-14T00:55:31;13.47;;;13.07;;
22068;SDS011;13887;57.196;-2.100;2023-12-14T00:57:58;13.07;;;12.67;;
22068;SDS011;13887;57.196;-2.100;2023-12-14T01:00:25;13.13;;;12.73;;
22068;SDS011;13887;57.196;-2.100;2023-12-14T01:02:52;13.20;;;12.80;;
22068;SDS011;13887;57.196;-2.100;2023-12-14T01:05:20;12.90;;;12.50;;
22068;SDS011;13887;57.196;-2.100;2023-12-14T01:07:47;13.20;;;12.80;;
22068;SDS011;13887;57.196;-2.100;2023-12-14T01:10:14;13.60;;;13.10;;
22068;SDS011;13887;57.196;-2.100;2023-12-14T01:12:42;13.13;;;12.73;;
22068;SDS011;13887;57.196;-2.100;2023-12-14T01:15:09;13.70;;;13.20;;
22068;SDS011;13887;57.196;-2.100;2023-12-14T01:17:37;13.37;;;12.97;;
22068;SDS011;13887;57.196;-2.100;2023-12-14T01:20:08;14.00;;;13.50;;
22068;SDS011;13887;57.196;-2.100;2023-12-14T01:22:35;13.10;;;12.70;;
22068;SDS011;13887;57.196;-2.100;2023-12-14T01:25:04;13.57;;;13.07;;
22068;SDS011;13887;57.196;-2.100;2023-12-14T01:27:31;13.03;;;12.63;;
22068;SDS011;13887;57.196;-2.100;2023-12-14T01:29:58;13.57;;;13.07;;
22068;SDS011;13887;57.196;-2.100;2023-12-14T01:32:26;13.53;;;13.03;;
22068;SDS011;13887;57.196;-2.100;2023-12-14T01:34:53;13.37;;;12.93;;
22068;SDS011;13887;57.196;-2.100;2023-12-14T01:37:20;13.57;;;13.07;;
22068;SDS011;13887;57.196;-2.100;2023-12-14T01:39:48;13.33;;;12.90;;
22068;SDS011;13887;57.196;-2.100;2023-12-14T01:42:15;13.70;;;13.20;;
22068;SDS011;13887;57.196;-2.100;2023-12-14T01:44:42;13.27;;;12.87;;
22068;SDS011;13887;57.196;-2.100;2023-12-14T01:47:09;13.53;;;13.03;;
22068;SDS011;13887;57.196;-2.100;2023-12-14T01:49:37;13.57;;;13.07;;
22068;SDS011;13887;57.196;-2.100;2023-12-14T01:52:04;13.60;;;13.10;;
22068;SDS011;13887;57.196;-2.100;2023-12-14T01:54:32;13.57;;;13.07;;
22068;SDS011;13887;57.196;-2.100;2023-12-14T01:57:00;13.83;;;13.33;;
22068;SDS011;13887;57.196;-2.100;2023-12-14T01:59:27;13.63;;;13.13;;
22068;SDS011;13887;57.196;-2.100;2023-12-14T02:01:55;13.77;;;13.27;;
22068;SDS011;13887;57.196;-2.100;2023-12-14T02:04:24;13.30;;;12.90;;
22068;SDS011;13887;57.196;-2.100;2023-12-14T02:06:52;13.33;;;12.93;;
22068;SDS011;13887;57.196;-2.100;2023-12-14T02:09:19;13.33;;;12.93;;
22068;SDS011;13887;57.196;-2.100;2023-12-14T02:11:46;13.47;;;13.00;;
22068;SDS011;13887;57.196;-2.100;2023-12-14T02:14:14;13.67;;;13.17;;
22068;SDS011;13887;57.196;-2.100;2023-12-14T02:16:41;13.60;;;13.10;;
22068;SDS011;13887;57.196;-2.100;2023-12-14T02:19:09;13.37;;;12.97;;
22068;SDS011;13887;57.196;-2.100;2023-12-14T02:21:36;13.67;;;13.17;;
22068;SDS011;13887;57.196;-2.100;2023-12-14T02:24:03;13.77;;;13.27;;
22068;SDS011;13887;57.196;-2.100;2023-12-14T02:26:31;13.83;;;13.33;;
22068;SDS011;13887;57.196;-2.100;2023-12-14T02:28:58;13.60;;;13.10;;
22068;SDS011;13887;57.196;-2.100;2023-12-14T02:31:26;13.17;;;12.77;;
22068;SDS011;13887;57.196;-2.100;2023-12-14T02:33:53;13.57;;;13.07;;
22068;SDS011;13887;57.196;-2.100;2023-12-14T02:36:20;13.37;;;12.97;;
22068;SDS011;13887;57.196;-2.100;2023-12-14T02:38:48;13.43;;;13.00;;
22068;SDS011;13887;57.196;-2.100;2023-12-14T02:41:15;13.60;;;13.10;;
22068;SDS011;13887;57.196;-2.100;2023-12-14T02:43:43;13.30;;;12.90;;
22068;SDS011;13887;57.196;-2.100;2023-12-14T02:46:10;13.60;;;13.10;;
22068;SDS011;13887;57.196;-2.100;2023-12-14T02:48:40;13.30;;;12.90;;
22068;SDS011;13887;57.196;-2.100;2023-12-14T02:51:12;13.23;;;12.83;;
22068;SDS011;13887;57.196;-2.100;2023-12-14T02:53:41;13.37;;;12.97;;
22068;SDS011;13887;57.196;-2.100;2023-12-14T02:56:09;13.60;;;13.10;;
22068;SDS011;13887;57.196;-2.100;2023-12-14T02:58:38;13.73;;;13.23;;
22068;SDS011;13887;57.196;-2.100;2023-12-14T03:01:05;13.70;;;13.20;;
22068;SDS011;13887;57.196;-2.100;2023-12-14T03:03:32;13.60;;;13.10;;
22068;SDS011;13887;57.196;-2.100;2023-12-14T03:06:00;13.27;;;12.87;;
22068;SDS011;13887;57.196;-2.100;2023-12-14T03:08:27;13.30;;;12.90;;
22068;SDS011;13887;57.196;-2.100;2023-12-14T03:10:54;13.57;;;13.07;;
22068;SDS011;13887;57.196;-2.100;2023-12-14T03:13:22;13.67;;;13.17;;
22068;SDS011;13887;57.196;-2.100;2023-12-14T03:15:49;13.80;;;13.30;;
22068;SDS011;13887;57.196;-2.100;2023-12-14T03:18:16;12.90;;;12.50;;
22068;SDS011;13887;57.196;-2.100;2023-12-14T03:20:44;13.07;;;12.67;;
22068;SDS011;13887;57.196;-2.100;2023-12-14T03:23:12;13.00;;;12.60;;
22068;SDS011;13887;57.196;-2.100;2023-12-14T03:25:39;12.90;;;12.50;;
22068;SDS011;13887;57.196;-2.100;2023-12-14T03:28:06;12.93;;;12.53;;
22068;SDS011;13887;57.196;-2.100;2023-12-14T03:30:33;13.57;;;13.07;;
22068;SDS011;13887;57.196;-2.100;2023-12-14T03:33:01;13.40;;;13.00;;
22068;SDS011;13887;57.196;-2.100;2023-12-14T03:35:28;13.30;;;12.90;;
22068;SDS011;13887;57.196;-2.100;2023-12-14T03:37:56;13.60;;;13.10;;
22068;SDS011;13887;57.196;-2.100;2023-12-14T03:40:23;13.30;;;12.90;;
22068;SDS011;13887;57.196;-2.100;2023-12-14T03:42:50;13.67;;;13.17;;
22068;SDS011;13887;57.196;-2.100;2023-12-14T03:45:17;13.87;;;13.37;;
22068;SDS011;13887;57.196;-2.100;2023-12-14T03:47:45;13.30;;;12.90;;
22068;SDS011;13887;57.196;-2.100;2023-12-14T03:50:12;13.40;;;12.97;;
22068;SDS011;13887;57.196;-2.100;2023-12-14T03:52:39;13.60;;;13.10;;
22068;SDS011;13887;57.196;-2.100;2023-12-14T03:55:07;13.70;;;13.20;;
22068;SDS011;13887;57.196;-2.100;2023-12-14T03:57:35;13.93;;;13.43;;
22068;SDS011;13887;57.196;-2.100;2023-12-14T04:00:03;13.67;;;13.17;;
22068;SDS011;13887;57.196;-2.100;2023-12-14T04:02:30;13.80;;;13.30;;
22068;SDS011;13887;57.196;-2.100;2023-12-14T04:04:58;13.43;;;13.00;;
22068;SDS011;13887;57.196;-2.100;2023-12-14T04:07:26;13.67;;;13.17;;
22068;SDS011;13887;57.196;-2.100;2023-12-14T04:09:53;13.70;;;13.20;;
22068;SDS011;13887;57.196;-2.100;2023-12-14T04:12:20;13.60;;;13.10;;
22068;SDS011;13887;57.196;-2.100;2023-12-14T04:14:48;13.47;;;13.00;;
22068;SDS011;13887;57.196;-2.100;2023-12-14T04:17:16;13.20;;;12.80;;
22068;SDS011;13887;57.196;-2.100;2023-12-14T04:19:44;13.50;;;13.00;;
22068;SDS011;13887;57.196;-2.100;2023-12-14T04:22:11;13.27;;;12.87;;
22068;SDS011;13887;57.196;-2.100;2023-12-14T04:24:38;13.60;;;13.10;;
22068;SDS011;13887;57.196;-2.100;2023-12-14T04:27:05;13.60;;;13.10;;
22068;SDS011;13887;57.196;-2.100;2023-12-14T04:29:33;13.60;;;13.10;;
22068;SDS011;13887;57.196;-2.100;2023-12-14T04:32:00;13.67;;;13.17;;
22068;SDS011;13887;57.196;-2.100;2023-12-14T04:34:27;13.43;;;13.00;;
22068;SDS011;13887;57.196;-2.100;2023-12-14T04:36:55;13.27;;;12.87;;
22068;SDS011;13887;57.196;-2.100;2023-12-14T04:39:24;13.33;;;12.93;;
22068;SDS011;13887;57.196;-2.100;2023-12-14T04:41:52;13.30;;;12.90;;
22068;SDS011;13887;57.196;-2.100;2023-12-14T04:44:20;13.10;;;12.70;;
22068;SDS011;13887;57.196;-2.100;2023-12-14T04:46:48;13.30;;;12.90;;
22068;SDS011;13887;57.196;-2.100;2023-12-14T04:49:16;13.10;;;12.70;;
22068;SDS011;13887;57.196;-2.100;2023-12-14T04:51:43;13.50;;;13.00;;
22068;SDS011;13887;57.196;-2.100;2023-12-14T04:54:11;13.73;;;13.23;;
22068;SDS011;13887;57.196;-2.100;2023-12-14T04:56:38;13.67;;;13.17;;
22068;SDS011;13887;57.196;-2.100;2023-12-14T04:59:05;13.40;;;13.00;;
22068;SDS011;13887;57.196;-2.100;2023-12-14T05:01:33;13.53;;;13.03;;
22068;SDS011;13887;57.196;-2.100;2023-12-14T05:04:00;13.57;;;13.07;;
22068;SDS011;13887;57.196;-2.100;2023-12-14T05:06:28;13.27;;;12.87;;
22068;SDS011;13887;57.196;-2.100;2023-12-14T05:08:56;13.53;;;13.03;;
22068;SDS011;13887;57.196;-2.100;2023-12-14T05:11:24;12.90;;;12.50;;
22068;SDS011;13887;57.196;-2.100;2023-12-14T05:13:51;13.63;;;13.13;;
22068;SDS011;13887;57.196;-2.100;2023-12-14T05:16:19;13.30;;;12.87;;
22068;SDS011;13887;57.196;-2.100;2023-12-14T05:18:46;13.50;;;13.00;;
22068;SDS011;13887;57.196;-2.100;2023-12-14T05:21:16;13.73;;;13.23;;
22068;SDS011;13887;57.196;-2.100;2023-12-14T05:23:44;13.63;;;13.13;;
22068;SDS011;13887;57.196;-2.100;2023-12-14T05:26:12;13.63;;;13.13;;
22068;SDS011;13887;57.196;-2.100;2023-12-14T05:28:39;13.60;;;13.10;;
22068;SDS011;13887;57.196;-2.100;2023-12-14T05:31:07;13.60;;;13.10;;
22068;SDS011;13887;57.196;-2.100;2023-12-14T05:33:38;13.07;;;12.67;;
22068;SDS011;13887;57.196;-2.100;2023-12-14T05:36:06;13.57;;;13.07;;
22068;SDS011;13887;57.196;-2.100;2023-12-14T05:38:38;13.60;;;13.10;;
22068;SDS011;13887;57.196;-2.100;2023-12-14T05:41:05;13.83;;;13.33;;
22068;SDS011;13887;57.196;-2.100;2023-12-14T05:43:33;13.90;;;13.40;;
22068;SDS011;13887;57.196;-2.100;2023-12-14T05:46:01;13.63;;;13.13;;
22068;SDS011;13887;57.196;-2.100;2023-12-14T05:48:28;13.83;;;13.33;;
22068;SDS011;13887;57.196;-2.100;2023-12-14T05:50:57;13.77;;;13.27;;
22068;SDS011;13887;57.196;-2.100;2023-12-14T05:53:24;13.90;;;13.40;;
22068;SDS011;13887;57.196;-2.100;2023-12-14T05:55:51;14.10;;;13.60;;
22068;SDS011;13887;57.196;-2.100;2023-12-14T05:58:18;14.17;;;13.67;;
22068;SDS011;13887;57.196;-2.100;2023-12-14T06:00:46;14.00;;;13.50;;
22068;SDS011;13887;57.196;-2.100;2023-12-14T06:03:13;14.40;;;13.90;;
22068;SDS011;13887;57.196;-2.100;2023-12-14T06:05:40;14.60;;;14.10;;
22068;SDS011;13887;57.196;-2.100;2023-12-14T06:08:08;14.77;;;14.27;;
22068;SDS011;13887;57.196;-2.100;2023-12-14T06:10:35;14.70;;;14.20;;
22068;SDS011;13887;57.196;-2.100;2023-12-14T06:13:03;14.90;;;14.40;;
22068;SDS011;13887;57.196;-2.100;2023-12-14T06:15:31;14.93;;;14.40;;
22068;SDS011;13887;57.196;-2.100;2023-12-14T06:17:59;14.53;;;14.03;;
22068;SDS011;13887;57.196;-2.100;2023-12-14T06:20:27;14.40;;;13.90;;
22068;SDS011;13887;57.196;-2.100;2023-12-14T06:22:54;14.57;;;14.07;;
22068;SDS011;13887;57.196;-2.100;2023-12-14T06:25:21;14.33;;;13.83;;
22068;SDS011;13887;57.196;-2.100;2023-12-14T06:27:49;14.40;;;13.90;;
22068;SDS011;13887;57.196;-2.100;2023-12-14T06:30:17;14.40;;;13.90;;
22068;SDS011;13887;57.196;-2.100;2023-12-14T06:32:44;14.50;;;14.00;;
22068;SDS011;13887;57.196;-2.100;2023-12-14T06:35:11;14.63;;;14.13;;
22068;SDS011;13887;57.196;-2.100;2023-12-14T06:37:40;14.60;;;14.10;;
22068;SDS011;13887;57.196;-2.100;2023-12-14T06:40:09;14.40;;;13.90;;
22068;SDS011;13887;57.196;-2.100;2023-12-14T06:42:36;14.37;;;13.87;;
22068;SDS011;13887;57.196;-2.100;2023-12-14T06:45:04;14.33;;;13.83;;
22068;SDS011;13887;57.196;-2.100;2023-12-14T06:47:31;14.47;;;13.97;;
22068;SDS011;13887;57.196;-2.100;2023-12-14T06:49:59;14.37;;;13.87;;
22068;SDS011;13887;57.196;-2.100;2023-12-14T06:52:26;14.20;;;13.70;;
22068;SDS011;13887;57.196;-2.100;2023-12-14T06:54:53;14.13;;;13.63;;
22068;SDS011;13887;57.196;-2.100;2023-12-14T06:57:21;14.37;;;13.87;;
22068;SDS011;13887;57.196;-2.100;2023-12-14T06:59:51;14.63;;;14.13;;
22068;SDS011;13887;57.196;-2.100;2023-12-14T07:02:18;14.77;;;14.27;;
22068;SDS011;13887;57.196;-2.100;2023-12-14T07:04:46;14.47;;;13.97;;
22068;SDS011;13887;57.196;-2.100;2023-12-14T07:07:13;14.37;;;13.87;;
22068;SDS011;13887;57.196;-2.100;2023-12-14T07:09:41;14.60;;;14.10;;
22068;SDS011;13887;57.196;-2.100;2023-12-14T07:12:09;14.27;;;13.77;;
22068;SDS011;13887;57.196;-2.100;2023-12-14T07:14:38;14.87;;;14.37;;
22068;SDS011;13887;57.196;-2.100;2023-12-14T07:17:06;14.50;;;14.00;;
22068;SDS011;13887;57.196;-2.100;2023-12-14T07:19:33;14.67;;;14.17;;
22068;SDS011;13887;57.196;-2.100;2023-12-14T07:22:02;14.80;;;14.30;;
22068;SDS011;13887;57.196;-2.100;2023-12-14T07:24:29;14.57;;;14.07;;
22068;SDS011;13887;57.196;-2.100;2023-12-14T07:27:14;14.43;;;13.93;;
22068;SDS011;13887;57.196;-2.100;2023-12-14T07:29:41;14.30;;;13.80;;
22068;SDS011;13887;57.196;-2.100;2023-12-14T07:32:08;14.37;;;13.87;;
22068;SDS011;13887;57.196;-2.100;2023-12-14T07:34:36;14.50;;;14.00;;
22068;SDS011;13887;57.196;-2.100;2023-12-14T07:37:03;14.23;;;13.73;;
22068;SDS011;13887;57.196;-2.100;2023-12-14T07:39:31;14.50;;;14.00;;
22068;SDS011;13887;57.196;-2.100;2023-12-14T07:41:58;14.53;;;14.03;;
22068;SDS011;13887;57.196;-2.100;2023-12-14T07:44:26;14.47;;;13.97;;
22068;SDS011;13887;57.196;-2.100;2023-12-14T07:47:00;14.27;;;13.77;;
22068;SDS011;13887;57.196;-2.100;2023-12-14T07:49:28;13.83;;;13.33;;
22068;SDS011;13887;57.196;-2.100;2023-12-14T07:51:55;14.20;;;13.70;;
22068;SDS011;13887;57.196;-2.100;2023-12-14T07:54:22;14.30;;;13.80;;
22068;SDS011;13887;57.196;-2.100;2023-12-14T07:57:07;14.50;;;14.00;;
22068;SDS011;13887;57.196;-2.100;2023-12-14T07:59:34;14.00;;;13.50;;
22068;SDS011;13887;57.196;-2.100;2023-12-14T08:02:02;14.30;;;13.80;;
22068;SDS011;13887;57.196;-2.100;2023-12-14T08:04:29;13.83;;;13.33;;
22068;SDS011;13887;57.196;-2.100;2023-12-14T08:06:57;14.00;;;13.50;;
22068;SDS011;13887;57.196;-2.100;2023-12-14T08:09:24;13.27;;;12.87;;
22068;SDS011;13887;57.196;-2.100;2023-12-14T08:11:52;14.30;;;13.80;;
22068;SDS011;13887;57.196;-2.100;2023-12-14T08:14:19;13.80;;;13.30;;
22068;SDS011;13887;57.196;-2.100;2023-12-14T08:16:46;13.53;;;13.03;;
22068;SDS011;13887;57.196;-2.100;2023-12-14T08:19:14;13.90;;;13.40;;
22068;SDS011;13887;57.196;-2.100;2023-12-14T08:21:41;13.77;;;13.27;;
22068;SDS011;13887;57.196;-2.100;2023-12-14T08:24:09;14.17;;;13.67;;
22068;SDS011;13887;57.196;-2.100;2023-12-14T08:26:36;13.63;;;13.13;;
22068;SDS011;13887;57.196;-2.100;2023-12-14T08:29:03;13.73;;;13.23;;
22068;SDS011;13887;57.196;-2.100;2023-12-14T08:31:30;14.03;;;13.53;;
22068;SDS011;13887;57.196;-2.100;2023-12-14T08:33:58;14.23;;;13.73;;
22068;SDS011;13887;57.196;-2.100;2023-12-14T08:36:26;13.73;;;13.23;;
22068;SDS011;13887;57.196;-2.100;2023-12-14T08:38:53;14.20;;;13.70;;
22068;SDS011;13887;57.196;-2.100;2023-12-14T08:41:21;14.07;;;13.57;;
22068;SDS011;13887;57.196;-2.100;2023-12-14T08:43:48;13.77;;;13.27;;
22068;SDS011;13887;57.196;-2.100;2023-12-14T08:46:16;13.87;;;13.37;;
22068;SDS011;13887;57.196;-2.100;2023-12-14T08:48:43;14.50;;;14.00;;
22068;SDS011;13887;57.196;-2.100;2023-12-14T08:51:10;14.43;;;13.93;;
22068;SDS011;13887;57.196;-2.100;2023-12-14T08:53:38;14.37;;;13.87;;
22068;SDS011;13887;57.196;-2.100;2023-12-14T08:56:05;14.43;;;13.93;;
22068;SDS011;13887;57.196;-2.100;2023-12-14T08:58:35;14.20;;;13.70;;
22068;SDS011;13887;57.196;-2.100;2023-12-14T09:01:03;14.33;;;13.83;;
22068;SDS011;13887;57.196;-2.100;2023-12-14T09:03:30;13.70;;;13.20;;
22068;SDS011;13887;57.196;-2.100;2023-12-14T09:05:58;13.87;;;13.37;;
22068;SDS011;13887;57.196;-2.100;2023-12-14T09:08:26;14.37;;;13.87;;
22068;SDS011;13887;57.196;-2.100;2023-12-14T09:10:53;13.80;;;13.30;;
22068;SDS011;13887;57.196;-2.100;2023-12-14T09:13:20;14.10;;;13.60;;
22068;SDS011;13887;57.196;-2.100;2023-12-14T09:15:47;14.17;;;13.67;;
22068;SDS011;13887;57.196;-2.100;2023-12-14T09:18:19;13.83;;;13.33;;
22068;SDS011;13887;57.196;-2.100;2023-12-14T09:20:48;13.70;;;13.20;;
22068;SDS011;13887;57.196;-2.100;2023-12-14T09:23:16;13.90;;;13.40;;
22068;SDS011;13887;57.196;-2.100;2023-12-14T09:25:45;13.80;;;13.30;;
22068;SDS011;13887;57.196;-2.100;2023-12-14T09:28:13;13.87;;;13.37;;
22068;SDS011;13887;57.196;-2.100;2023-12-14T09:30:40;13.10;;;12.70;;
22068;SDS011;13887;57.196;-2.100;2023-12-14T09:33:08;13.57;;;13.07;;
22068;SDS011;13887;57.196;-2.100;2023-12-14T09:35:36;13.90;;;13.40;;
22068;SDS011;13887;57.196;-2.100;2023-12-14T09:38:04;14.00;;;13.50;;
22068;SDS011;13887;57.196;-2.100;2023-12-14T09:40:33;13.77;;;13.27;;
22068;SDS011;13887;57.196;-2.100;2023-12-14T09:43:01;13.67;;;13.17;;
22068;SDS011;13887;57.196;-2.100;2023-12-14T09:45:33;13.10;;;12.70;;
22068;SDS011;13887;57.196;-2.100;2023-12-14T09:48:01;12.63;;;12.23;;
22068;SDS011;13887;57.196;-2.100;2023-12-14T09:50:29;13.20;;;12.80;;
22068;SDS011;13887;57.196;-2.100;2023-12-14T09:52:59;13.57;;;13.07;;
22068;SDS011;13887;57.196;-2.100;2023-12-14T09:55:26;13.67;;;13.17;;
22068;SDS011;13887;57.196;-2.100;2023-12-14T09:57:54;13.67;;;13.17;;
22068;SDS011;13887;57.196;-2.100;2023-12-14T10:00:32;13.57;;;13.07;;
22068;SDS011;13887;57.196;-2.100;2023-12-14T10:03:17;13.90;;;13.40;;
22068;SDS011;13887;57.196;-2.100;2023-12-14T10:05:48;13.77;;;13.27;;
22068;SDS011;13887;57.196;-2.100;2023-12-14T10:08:16;13.80;;;13.30;;
22068;SDS011;13887;57.196;-2.100;2023-12-14T10:10:46;13.50;;;13.00;;
22068;SDS011;13887;57.196;-2.100;2023-12-14T10:13:16;13.53;;;13.03;;
22068;SDS011;13887;57.196;-2.100;2023-12-14T10:15:44;13.50;;;13.00;;
22068;SDS011;13887;57.196;-2.100;2023-12-14T10:18:15;13.50;;;13.00;;
22068;SDS011;13887;57.196;-2.100;2023-12-14T10:20:49;13.30;;;12.83;;
22068;SDS011;13887;57.196;-2.100;2023-12-14T10:23:17;13.00;;;12.60;;
22068;SDS011;13887;57.196;-2.100;2023-12-14T10:25:44;13.77;;;13.27;;
22068;SDS011;13887;57.196;-2.100;2023-12-14T10:28:13;13.90;;;13.40;;
22068;SDS011;13887;57.196;-2.100;2023-12-14T10:30:41;13.90;;;13.40;;
22068;SDS011;13887;57.196;-2.100;2023-12-14T10:33:09;13.87;;;13.37;;
22068;SDS011;13887;57.196;-2.100;2023-12-14T10:35:37;13.10;;;12.70;;
22068;SDS011;13887;57.196;-2.100;2023-12-14T10:38:04;13.50;;;13.00;;
22068;SDS011;13887;57.196;-2.100;2023-12-14T10:40:32;13.53;;;13.03;;
22068;SDS011;13887;57.196;-2.100;2023-12-14T10:43:01;13.80;;;13.30;;
22068;SDS011;13887;57.196;-2.100;2023-12-14T10:45:32;13.63;;;13.13;;
22068;SDS011;13887;57.196;-2.100;2023-12-14T10:48:00;14.00;;;13.50;;
22068;SDS011;13887;57.196;-2.100;2023-12-14T10:50:31;14.03;;;13.53;;
22068;SDS011;13887;57.196;-2.100;2023-12-14T10:53:00;13.93;;;13.43;;
22068;SDS011;13887;57.196;-2.100;2023-12-14T10:55:42;14.10;;;13.60;;
22068;SDS011;13887;57.196;-2.100;2023-12-14T10:58:11;14.17;;;13.67;;
22068;SDS011;13887;57.196;-2.100;2023-12-14T11:00:39;13.83;;;13.33;;
22068;SDS011;13887;57.196;-2.100;2023-12-14T11:03:12;14.20;;;13.70;;
22068;SDS011;13887;57.196;-2.100;2023-12-14T11:05:40;13.67;;;13.17;;
22068;SDS011;13887;57.196;-2.100;2023-12-14T11:08:07;13.70;;;13.20;;
22068;SDS011;13887;57.196;-2.100;2023-12-14T11:10:40;13.63;;;13.13;;
22068;SDS011;13887;57.196;-2.100;2023-12-14T11:13:22;14.00;;;13.50;;
22068;SDS011;13887;57.196;-2.100;2023-12-14T11:15:51;12.97;;;12.57;;
22068;SDS011;13887;57.196;-2.100;2023-12-14T11:18:22;13.23;;;12.83;;
22068;SDS011;13887;57.196;-2.100;2023-12-14T11:20:54;13.73;;;13.23;;
22068;SDS011;13887;57.196;-2.100;2023-12-14T11:25:52;13.50;;;13.00;;
22068;SDS011;13887;57.196;-2.100;2023-12-14T11:28:25;13.60;;;13.10;;
22068;SDS011;13887;57.196;-2.100;2023-12-14T11:30:57;14.00;;;13.50;;
22068;SDS011;13887;57.196;-2.100;2023-12-14T11:33:25;12.80;;;12.40;;
22068;SDS011;13887;57.196;-2.100;2023-12-14T11:35:54;13.00;;;12.60;;
22068;SDS011;13887;57.196;-2.100;2023-12-14T11:38:24;12.33;;;11.93;;
22068;SDS011;13887;57.196;-2.100;2023-12-14T11:40:52;13.20;;;12.80;;
22068;SDS011;13887;57.196;-2.100;2023-12-14T11:43:19;13.70;;;13.20;;
22068;SDS011;13887;57.196;-2.100;2023-12-14T11:45:52;13.33;;;12.83;;
22068;SDS011;13887;57.196;-2.100;2023-12-14T11:48:22;13.77;;;13.27;;
22068;SDS011;13887;57.196;-2.100;2023-12-14T11:50:50;13.87;;;13.37;;
22068;SDS011;13887;57.196;-2.100;2023-12-14T11:53:18;13.80;;;13.30;;
22068;SDS011;13887;57.196;-2.100;2023-12-14T11:55:45;13.73;;;13.23;;
22068;SDS011;13887;57.196;-2.100;2023-12-14T11:58:13;14.13;;;13.63;;
22068;SDS011;13887;57.196;-2.100;2023-12-14T12:00:42;13.10;;;12.70;;
22068;SDS011;13887;57.196;-2.100;2023-12-14T12:03:17;13.27;;;12.87;;
22068;SDS011;13887;57.196;-2.100;2023-12-14T12:05:50;13.23;;;12.83;;
22068;SDS011;13887;57.196;-2.100;2023-12-14T12:08:19;13.57;;;13.07;;
22068;SDS011;13887;57.196;-2.100;2023-12-14T12:10:48;13.70;;;13.20;;
22068;SDS011;13887;57.196;-2.100;2023-12-14T12:13:17;13.83;;;13.33;;
22068;SDS011;13887;57.196;-2.100;2023-12-14T12:15:46;13.90;;;13.40;;
22068;SDS011;13887;57.196;-2.100;2023-12-14T12:18:15;13.80;;;13.30;;
22068;SDS011;13887;57.196;-2.100;2023-12-14T12:20:44;13.47;;;13.00;;
22068;SDS011;13887;57.196;-2.100;2023-12-14T12:23:13;13.63;;;13.13;;
22068;SDS011;13887;57.196;-2.100;2023-12-14T12:25:41;13.53;;;13.03;;
22068;SDS011;13887;57.196;-2.100;2023-12-14T12:28:08;13.53;;;13.03;;
22068;SDS011;13887;57.196;-2.100;2023-12-14T12:30:36;13.60;;;13.10;;
22068;SDS011;13887;57.196;-2.100;2023-12-14T12:33:07;13.57;;;13.07;;
22068;SDS011;13887;57.196;-2.100;2023-12-14T12:35:34;14.17;;;13.67;;
22068;SDS011;13887;57.196;-2.100;2023-12-14T12:38:01;14.00;;;13.50;;
22068;SDS011;13887;57.196;-2.100;2023-12-14T12:40:30;13.73;;;13.23;;
22068;SDS011;13887;57.196;-2.100;2023-12-14T12:42:58;13.70;;;13.20;;
22068;SDS011;13887;57.196;-2.100;2023-12-14T12:45:25;13.30;;;12.90;;
22068;SDS011;13887;57.196;-2.100;2023-12-14T12:47:55;13.13;;;12.73;;
22068;SDS011;13887;57.196;-2.100;2023-12-14T12:50:23;13.57;;;13.07;;
22068;SDS011;13887;57.196;-2.100;2023-12-14T12:52:51;13.53;;;13.03;;
22068;SDS011;13887;57.196;-2.100;2023-12-14T12:55:18;13.50;;;13.00;;
22068;SDS011;13887;57.196;-2.100;2023-12-14T12:57:46;13.90;;;13.40;;
22068;SDS011;13887;57.196;-2.100;2023-12-14T13:00:14;13.47;;;12.97;;
22068;SDS011;13887;57.196;-2.100;2023-12-14T13:02:43;13.43;;;12.97;;
22068;SDS011;13887;57.196;-2.100;2023-12-14T13:05:12;13.57;;;13.07;;
22068;SDS011;13887;57.196;-2.100;2023-12-14T13:07:44;13.27;;;12.87;;
22068;SDS011;13887;57.196;-2.100;2023-12-14T13:10:14;13.53;;;13.03;;
22068;SDS011;13887;57.196;-2.100;2023-12-14T13:12:56;13.90;;;13.40;;
22068;SDS011;13887;57.196;-2.100;2023-12-14T13:15:24;14.10;;;13.60;;
22068;SDS011;13887;57.196;-2.100;2023-12-14T13:17:53;14.00;;;13.50;;
22068;SDS011;13887;57.196;-2.100;2023-12-14T13:20:21;13.90;;;13.40;;
22068;SDS011;13887;57.196;-2.100;2023-12-14T13:22:48;14.00;;;13.50;;
22068;SDS011;13887;57.196;-2.100;2023-12-14T13:25:16;14.00;;;13.50;;
22068;SDS011;13887;57.196;-2.100;2023-12-14T13:27:44;14.27;;;13.77;;
22068;SDS011;13887;57.196;-2.100;2023-12-14T13:30:11;14.30;;;13.80;;
22068;SDS011;13887;57.196;-2.100;2023-12-14T13:32:44;13.73;;;13.23;;
22068;SDS011;13887;57.196;-2.100;2023-12-14T13:35:12;13.33;;;12.90;;
22068;SDS011;13887;57.196;-2.100;2023-12-14T13:37:40;13.93;;;13.43;;
22068;SDS011;13887;57.196;-2.100;2023-12-14T13:40:08;14.13;;;13.63;;
22068;SDS011;13887;57.196;-2.100;2023-12-14T13:42:40;13.70;;;13.20;;
22068;SDS011;13887;57.196;-2.100;2023-12-14T13:45:27;13.83;;;13.33;;
22068;SDS011;13887;57.196;-2.100;2023-12-14T13:47:57;14.10;;;13.60;;
22068;SDS011;13887;57.196;-2.100;2023-12-14T13:50:26;14.07;;;13.57;;
22068;SDS011;13887;57.196;-2.100;2023-12-14T13:52:55;14.10;;;13.60;;
22068;SDS011;13887;57.196;-2.100;2023-12-14T13:55:23;14.20;;;13.70;;
22068;SDS011;13887;57.196;-2.100;2023-12-14T13:57:50;14.40;;;13.90;;
22068;SDS011;13887;57.196;-2.100;2023-12-14T14:00:17;14.00;;;13.50;;
22068;SDS011;13887;57.196;-2.100;2023-12-14T14:02:46;13.97;;;13.47;;
22068;SDS011;13887;57.196;-2.100;2023-12-14T14:05:13;14.07;;;13.57;;
22068;SDS011;13887;57.196;-2.100;2023-12-14T14:07:41;14.23;;;13.73;;
22068;SDS011;13887;57.196;-2.100;2023-12-14T14:10:08;14.00;;;13.50;;
22068;SDS011;13887;57.196;-2.100;2023-12-14T14:12:37;14.10;;;13.60;;
22068;SDS011;13887;57.196;-2.100;2023-12-14T14:15:05;13.60;;;13.10;;
22068;SDS011;13887;57.196;-2.100;2023-12-14T14:17:33;14.27;;;13.77;;